Time;durP1;ratioP1;P1;durP2;ratioP2;P2;SDS_P1;SDS_P2;PMS_P1;PMS_P2;Temp;Humidity;BMP_temperature;BMP_pressure;BME280_temperature;BME280_humidity;BME280_pressure;Samples;Min_cycle;Max_cycle;Signal;HPM_P1;HPM_P2
2022/05/25 00:02:25;;;;;;;3.40;0.40;;;;;;;17.94;53.02;96370.94;10457180;28;20037;-23
2022/05/25 00:07:25;;;;;;;1.75;0.57;;;;;;;17.80;53.26;96352.41;10456641;28;20827;-22
2022/05/25 00:12:27;;;;;;;4.30;0.90;;;;;;;17.84;53.10;96359.19;10456266;28;20033;-23
2022/05/25 00:17:27;;;;;;;1.55;0.40;;;;;;;17.88;53.63;96365.91;10474822;28;20032;-23
2022/05/25 00:22:49;;;;;;;0.77;0.37;;;;;;;17.91;53.27;96369.25;10475966;28;20036;-22
2022/05/25 00:27:50;;;;;;;1.30;0.50;;;;;;;17.88;53.38;96369.28;10464355;28;20121;-22
2022/05/25 00:32:51;;;;;;;0.32;0.30;;;;;;;17.85;53.59;96371.84;10458681;28;20028;-22
2022/05/25 00:37:52;;;;;;;1.45;0.40;;;;;;;17.84;54.03;96369.31;10496404;28;20036;-23
2022/05/25 00:42:52;;;;;;;0.77;0.50;;;;;;;17.88;53.89;96381.09;10476486;28;20036;-23
2022/05/25 00:47:52;;;;;;;1.33;0.43;;;;;;;17.87;53.88;96379.41;10472706;28;20045;-23
2022/05/25 00:52:53;;;;;;;1.83;0.50;;;;;;;17.84;53.98;96376.91;10454679;28;20287;-23
2022/05/25 00:57:57;;;;;;;1.65;0.70;;;;;;;17.87;53.84;96384.47;10454964;28;20116;-22
2022/05/25 01:03:10;;;;;;;0.50;0.50;;;;;;;17.82;54.21;96381.97;10462476;28;20035;-23
2022/05/25 01:08:29;;;;;;;1.42;0.40;;;;;;;17.82;54.07;96384.50;10495892;28;20039;-23
2022/05/25 01:13:50;;;;;;;0.95;0.45;;;;;;;17.81;54.17;96379.41;10456674;28;20044;-22
2022/05/25 01:19:02;;;;;;;0.95;0.47;;;;;;;17.77;54.57;96388.75;10487800;28;20033;-23
2022/05/25 01:24:20;;;;;;;0.73;0.50;;;;;;;17.79;54.38;96393.78;10489250;28;20040;-23
2022/05/25 01:29:45;;;;;;;0.70;0.35;;;;;;;17.76;54.56;96394.63;10494906;28;20036;-22
2022/05/25 01:35:09;;;;;;;2.17;0.40;;;;;;;17.74;54.71;96398.84;10472925;28;20037;-22
2022/05/25 01:40:24;;;;;;;0.22;0.22;;;;;;;17.75;54.44;96404.78;10462466;28;20044;-22
2022/05/25 01:45:29;;;;;;;2.50;0.50;;;;;;;17.77;54.67;96400.53;10493788;28;20044;-23
2022/05/25 01:50:35;;;;;;;0.60;0.32;;;;;;;17.78;54.49;96398.03;10475826;28;20047;-24
2022/05/25 01:55:41;;;;;;;2.70;0.53;;;;;;;17.81;54.49;96405.59;10451943;28;20029;-22
2022/05/25 02:00:47;;;;;;;0.95;0.55;;;;;;;17.77;54.61;96403.09;10452132;28;20757;-22
2022/05/25 02:06:00;;;;;;;0.65;0.55;;;;;;;17.74;54.93;96400.56;10451354;28;20487;-23
2022/05/25 02:11:24;;;;;;;1.58;0.60;;;;;;;17.74;55.25;96406.44;10468046;28;20040;-22
2022/05/25 02:16:52;;;;;;;2.47;0.60;;;;;;;17.72;55.25;96408.16;10491433;28;20024;-23
2022/05/25 02:21:59;;;;;;;0.88;0.40;;;;;;;17.68;55.75;96408.16;10450957;28;20048;-25
2022/05/25 02:27:05;;;;;;;5.75;0.60;;;;;;;17.63;55.34;96399.72;10451558;28;20112;-23
2022/05/25 02:32:18;;;;;;;1.83;0.50;;;;;;;17.71;55.61;96414.06;10451448;28;20036;-23
2022/05/25 02:37:22;;;;;;;2.40;0.45;;;;;;;17.69;55.16;96420.84;10450999;28;20045;-22
2022/05/25 02:42:23;;;;;;;5.32;0.50;;;;;;;17.68;55.54;96409.00;10459793;28;20090;-22
2022/05/25 02:47:24;;;;;;;0.80;0.50;;;;;;;17.71;55.29;96415.75;10492023;28;20037;-23
2022/05/25 02:52:24;;;;;;;1.85;0.60;;;;;;;17.71;55.24;96420.81;10450011;28;20419;-23
2022/05/25 02:57:25;;;;;;;0.70;0.45;;;;;;;17.68;55.24;96431.78;10449921;28;20033;-24
2022/05/25 03:02:25;;;;;;;1.33;0.50;;;;;;;17.68;55.42;96438.53;10450705;28;20048;-23
2022/05/25 03:07:26;;;;;;;0.65;0.40;;;;;;;17.67;55.52;96447.00;10483954;28;20302;-24
2022/05/25 03:12:27;;;;;;;2.08;0.63;;;;;;;17.63;55.52;96446.16;10461878;28;20072;-23
2022/05/25 03:17:27;;;;;;;0.75;0.50;;;;;;;17.68;55.59;96458.78;10475145;28;20036;-25
2022/05/25 03:22:28;;;;;;;0.60;0.55;;;;;;;17.65;55.63;96453.75;10448534;28;20031;-24
2022/05/25 03:27:28;;;;;;;1.65;0.40;;;;;;;17.67;55.49;96459.66;10451800;28;20570;-24
2022/05/25 03:32:28;;;;;;;1.20;0.70;;;;;;;17.65;55.34;96464.69;10457197;28;20087;-24
2022/05/25 03:37:29;;;;;;;3.33;0.50;;;;;;;17.64;55.49;96462.16;10499304;28;20086;-23
2022/05/25 03:42:29;;;;;;;1.25;0.55;;;;;;;17.64;55.54;96478.22;10472592;28;20449;-23
2022/05/25 03:47:33;;;;;;;1.53;0.50;;;;;;;17.67;55.21;96487.50;10490114;28;20033;-23
2022/05/25 03:52:33;;;;;;;2.85;0.60;;;;;;;17.70;55.30;96488.34;10462262;28;21627;-23
2022/05/25 03:57:34;;;;;;;0.50;0.50;;;;;;;17.68;55.50;96497.59;10477061;28;20056;-22
2022/05/25 04:02:34;;;;;;;0.77;0.60;;;;;;;17.66;55.84;96506.06;10488906;28;20291;-23
2022/05/25 04:07:41;;;;;;;1.88;0.50;;;;;;;17.66;55.48;96517.00;10471839;28;20773;-23
2022/05/25 04:12:43;;;;;;;0.95;0.50;;;;;;;17.65;55.69;96517.03;10474054;28;20048;-23
2022/05/25 04:17:43;;;;;;;1.67;0.55;;;;;;;17.64;55.74;96522.91;10477877;28;20025;-24
2022/05/25 04:22:44;;;;;;;3.03;0.70;;;;;;;17.56;55.56;96519.56;10480196;28;20036;-24
2022/05/25 04:27:46;;;;;;;2.80;0.80;;;;;;;17.61;55.79;96533.91;10481559;28;20516;-23
2022/05/25 04:32:47;;;;;;;2.40;0.68;;;;;;;17.61;55.68;96544.03;10497203;28;20078;-23
2022/05/25 04:37:53;;;;;;;0.73;0.70;;;;;;;17.54;55.54;96532.22;10466902;28;20078;-23
2022/05/25 04:42:55;;;;;;;;;;;;;;;17.63;55.69;96546.53;10488105;28;20498;-22
2022/05/25 04:47:57;;;;;;;1.60;0.52;;;;;;;17.62;55.33;96552.47;10493394;28;19977;-23
2022/05/25 04:52:59;;;;;;;1.30;0.60;;;;;;;17.74;55.33;96555.00;10454621;28;20044;-23
2022/05/25 04:58:00;;;;;;;1.38;0.60;;;;;;;17.79;55.08;96558.38;10487669;28;20020;-23
2022/05/25 05:03:00;;;;;;;2.95;0.60;;;;;;;17.82;54.98;96568.53;10485443;28;20125;-24
2022/05/25 05:08:01;;;;;;;1.13;0.53;;;;;;;17.74;55.50;96580.34;10452964;28;20135;-23
2022/05/25 05:13:04;;;;;;;3.25;0.95;;;;;;;17.72;55.65;96592.13;10487251;28;20544;-25
2022/05/25 05:18:07;;;;;;;2.78;0.60;;;;;;;17.68;55.48;96596.34;10492016;28;20040;-23
2022/05/25 05:23:27;;;;;;;2.78;0.80;;;;;;;17.71;55.71;96603.09;10432160;28;20041;-24
2022/05/25 05:28:31;;;;;;;0.63;0.63;;;;;;;17.75;55.43;96603.09;10453369;28;20033;-23
2022/05/25 05:33:33;;;;;;;3.20;0.75;;;;;;;17.78;55.37;96607.31;10457823;28;20040;-24
2022/05/25 05:38:41;;;;;;;1.70;0.63;;;;;;;17.83;54.91;96605.66;10494285;28;20040;-24
2022/05/25 05:43:41;;;;;;;1.38;0.60;;;;;;;17.88;55.13;96614.09;10473122;28;20118;-24
2022/05/25 05:48:42;;;;;;;1.58;0.70;;;;;;;17.91;55.09;96614.09;10474821;28;20060;-23
2022/05/25 05:53:44;;;;;;;2.38;0.70;;;;;;;17.89;55.24;96613.22;10449232;28;20620;-24
2022/05/25 05:58:44;;;;;;;2.28;1.05;;;;;;;17.95;55.16;96618.31;10490811;28;20039;-23
2022/05/25 06:03:44;;;;;;;1.50;1.10;;;;;;;17.94;55.28;96622.56;10483335;28;20437;-23
2022/05/25 06:08:46;;;;;;;2.00;1.27;;;;;;;17.79;55.92;96630.13;10451480;28;20037;-24
2022/05/25 06:13:46;;;;;;;3.13;1.60;;;;;;;17.79;56.01;96632.66;10451324;28;20327;-25
2022/05/25 06:24:07;;;;;;;2.42;1.27;;;;;;;17.80;55.92;96646.16;10450656;28;20033;-23
2022/05/25 06:29:07;;;;;;;2.15;1.15;;;;;;;17.82;55.61;96649.56;10451100;28;20505;-24
2022/05/25 06:34:08;;;;;;;1.20;0.80;;;;;;;17.81;55.94;96655.44;10450109;28;20036;-24
2022/05/25 06:39:09;;;;;;;1.37;0.87;;;;;;;17.81;55.73;96668.09;10450404;28;20047;-23
2022/05/25 06:44:09;;;;;;;4.07;0.80;;;;;;;17.78;55.67;96668.09;10474749;28;20361;-23
2022/05/25 06:49:09;;;;;;;1.33;0.70;;;;;;;17.75;56.00;96671.47;10490181;28;20041;-23
2022/05/25 06:54:16;;;;;;;0.95;0.60;;;;;;;17.79;55.89;96667.25;10488842;28;21846;-23
2022/05/25 06:59:17;;;;;;;;;;;;;;;17.94;55.35;96674.88;10450116;28;20040;-23
2022/05/25 07:04:17;;;;;;;2.20;0.50;;;;;;;17.89;55.11;96671.50;10449110;28;20005;-22
2022/05/25 07:09:17;;;;;;;1.20;0.80;;;;;;;17.89;54.84;96689.22;10449556;28;20025;-23
2022/05/25 07:14:18;;;;;;;0.93;0.50;;;;;;;17.92;54.73;96694.31;10449432;28;20037;-23
2022/05/25 07:19:18;;;;;;;0.95;0.73;;;;;;;17.92;54.68;96691.78;10489678;28;20309;-24
2022/05/25 07:24:19;;;;;;;1.63;0.50;;;;;;;17.86;54.41;96687.53;10485882;28;20438;-24
2022/05/25 07:29:19;;;;;;;2.20;0.63;;;;;;;17.90;54.40;96688.41;10449281;28;20029;-23
2022/05/25 07:34:25;;;;;;;0.60;0.40;;;;;;;17.90;54.17;96701.06;10453041;28;20519;-23
2022/05/25 07:39:32;;;;;;;2.38;0.40;;;;;;;17.89;54.24;96696.81;10486222;28;20033;-24
2022/05/25 07:44:38;;;;;;;0.82;0.50;;;;;;;18.06;54.06;96690.94;10476583;28;20036;-25
2022/05/25 07:49:39;;;;;;;1.52;0.50;;;;;;;17.98;53.90;96692.63;10469725;28;20036;-23
2022/05/25 07:54:41;;;;;;;0.68;0.45;;;;;;;17.94;53.95;96685.00;10457184;28;20024;-23
2022/05/25 07:59:42;;;;;;;3.60;0.60;;;;;;;17.97;54.12;96705.28;10493589;28;20047;-22
2022/05/25 08:10:14;;;;;;;2.17;0.40;;;;;;;18.05;53.86;96703.59;10450146;28;20064;-24
2022/05/25 08:15:15;;;;;;;1.30;0.40;;;;;;;17.97;53.70;96698.53;10463412;28;20021;-23
2022/05/25 08:20:17;;;;;;;0.45;0.25;;;;;;;17.98;53.52;96707.81;10486508;28;20203;-22
2022/05/25 08:25:19;;;;;;;0.60;0.57;;;;;;;17.98;53.43;96707.00;10458402;28;20044;-23
2022/05/25 08:30:20;;;;;;;1.65;0.55;;;;;;;18.00;53.48;96707.84;10458195;28;20442;-25
2022/05/25 08:35:21;;;;;;;0.75;0.20;;;;;;;18.06;53.54;96710.34;10457120;28;20484;-23
2022/05/25 08:40:23;;;;;;;0.50;0.50;;;;;;;18.03;53.26;96703.63;10458270;28;20102;-23
2022/05/25 08:45:31;;;;;;;0.80;0.43;;;;;;;18.04;53.55;96694.31;10491496;28;20518;-23
2022/05/25 08:50:32;;;;;;;0.57;0.40;;;;;;;18.01;53.64;96704.44;10477657;28;20041;-22
2022/05/25 08:56:03;;;;;;;2.28;0.45;;;;;;;18.04;53.84;96697.69;10456306;28;20495;-24
2022/05/25 09:01:06;;;;;;;0.50;0.40;;;;;;;18.05;53.66;96701.06;10457332;28;20045;-23
2022/05/25 09:06:24;;;;;;;0.70;0.65;;;;;;;18.16;53.41;96696.88;10479082;28;20044;-24
2022/05/25 09:11:45;;;;;;;1.27;0.50;;;;;;;18.21;53.43;96696.03;10477662;28;20060;-22
2022/05/25 09:16:49;;;;;;;0.93;0.40;;;;;;;18.19;53.29;96695.19;10474431;28;20074;-22
2022/05/25 09:22:00;;;;;;;1.15;0.50;;;;;;;18.23;53.31;96693.47;10495303;28;20037;-23
2022/05/25 09:27:04;;;;;;;0.57;0.40;;;;;;;18.20;53.49;96698.56;10467615;28;20037;-23
2022/05/25 09:32:16;;;;;;;1.27;0.77;;;;;;;18.22;53.25;96689.25;10453420;28;20102;-23
2022/05/25 09:37:40;;;;;;;1.02;0.35;;;;;;;18.25;53.29;96696.88;10452450;28;20037;-23
2022/05/25 09:42:41;;;;;;;1.05;0.47;;;;;;;18.22;53.46;96705.31;10483284;28;20486;-23
2022/05/25 09:47:44;;;;;;;0.77;0.60;;;;;;;18.19;53.35;96718.00;10492290;28;20041;-22
2022/05/25 09:52:49;;;;;;;2.17;0.60;;;;;;;18.20;52.89;96714.63;10493480;28;20751;-23
2022/05/25 09:57:58;;;;;;;1.35;0.50;;;;;;;18.20;52.54;96704.47;10460734;28;20086;-23
2022/05/25 10:03:04;;;;;;;0.80;0.38;;;;;;;18.26;52.48;96711.25;10458736;28;20487;-25
2022/05/25 10:08:18;;;;;;;2.30;0.50;;;;;;;18.29;52.80;96713.75;10491566;28;20080;-22
2022/05/25 10:13:25;;;;;;;0.77;0.45;;;;;;;18.39;52.63;96710.41;10456515;28;20037;-23
2022/05/25 10:18:34;;;;;;;0.47;0.30;;;;;;;18.30;52.36;96710.41;10477017;28;20588;-23
2022/05/25 10:23:41;;;;;;;1.40;0.60;;;;;;;18.28;52.30;96712.06;10451637;28;20065;-24
2022/05/25 10:29:06;;;;;;;0.70;0.50;;;;;;;18.27;51.87;96725.59;10451559;28;20073;-22
2022/05/25 10:36:45;;;;;;;1.63;0.40;;;;;;;18.20;51.84;96717.16;10450802;28;20044;-24
2022/05/25 10:39:37;;;;;;;0.85;0.47;;;;;;;18.21;51.59;96712.91;10449973;28;20120;-23
2022/05/25 10:45:06;;;;;;;3.20;0.40;;;;;;;18.23;51.48;96716.28;10478141;28;20036;-22
2022/05/25 10:50:15;;;;;;;0.98;0.40;;;;;;;18.25;51.38;96722.22;10472987;28;20510;-23
2022/05/25 10:55:15;;;;;;;2.22;0.60;;;;;;;18.31;51.32;96719.69;10479268;28;20137;-23
2022/05/25 11:00:22;;;;;;;0.60;0.30;;;;;;;18.32;51.85;96729.03;10449896;28;20036;-23
2022/05/25 11:05:47;;;;;;;0.80;0.40;;;;;;;18.30;51.72;96733.22;10449966;28;20086;-23
2022/05/25 11:11:05;;;;;;;0.57;0.45;;;;;;;18.34;51.40;96734.94;10451143;28;20079;-23
2022/05/25 11:16:06;;;;;;;0.98;0.50;;;;;;;18.44;51.48;96731.56;10463621;28;20029;-23
2022/05/25 11:21:21;;;;;;;1.83;0.60;;;;;;;18.66;50.34;96729.00;10491931;28;20105;-22
2022/05/25 11:26:59;;;;;;;1.73;0.38;;;;;;;18.46;50.15;96722.25;10449870;28;20415;-23
2022/05/25 11:32:02;;;;;;;0.85;0.50;;;;;;;18.38;50.38;96723.94;10448997;28;20388;-22
2022/05/25 11:37:36;;;;;;;0.57;0.40;;;;;;;18.33;50.74;96721.41;10448844;28;20028;-24
2022/05/25 11:43:03;;;;;;;1.25;0.50;;;;;;;18.37;51.07;96723.09;10474086;28;20075;-24
2022/05/25 11:48:31;;;;;;;0.97;0.70;;;;;;;18.29;51.34;96723.91;10492266;28;20043;-22
2022/05/25 11:53:46;;;;;;;0.95;0.30;;;;;;;18.35;51.55;96723.94;10465481;28;20037;-24
2022/05/25 11:59:11;;;;;;;1.13;0.45;;;;;;;18.36;51.61;96721.41;10496582;28;20095;-22
2022/05/25 12:04:48;;;;;;;1.13;0.40;;;;;;;18.33;51.84;96715.50;10474333;28;20464;-22
2022/05/25 12:10:08;;;;;;;0.80;0.40;;;;;;;18.38;51.80;96713.78;10463068;28;20037;-22
2022/05/25 12:15:24;;;;;;;0.60;0.45;;;;;;;18.47;51.61;96723.94;10497755;28;20116;-24
2022/05/25 12:20:36;;;;;;;2.47;0.60;;;;;;;18.53;51.41;96713.81;10496532;28;20047;-23
2022/05/25 12:25:42;;;;;;;2.47;0.47;;;;;;;18.46;51.51;96724.78;10482174;28;20037;-21
2022/05/25 12:30:47;;;;;;;1.38;0.50;;;;;;;18.48;51.91;96721.41;10455821;28;20037;-23
2022/05/25 12:35:49;;;;;;;1.25;0.45;;;;;;;18.46;51.39;96722.25;10455487;28;20094;-23
2022/05/25 12:40:51;;;;;;;1.08;0.50;;;;;;;18.44;51.72;96716.34;10462431;28;20041;-23
2022/05/25 12:51:39;;;;;;;1.67;0.90;;;;;;;18.43;51.51;96717.19;10471538;28;20033;-24
2022/05/25 12:56:40;;;;;;;3.83;1.27;;;;;;;18.46;51.75;96712.09;10454324;28;20045;-22
2022/05/25 13:02:01;;;;;;;2.23;0.73;;;;;;;18.51;51.96;96726.47;10453646;28;20090;-22
2022/05/25 13:07:02;;;;;;;2.85;0.52;;;;;;;18.54;51.96;96730.69;10453762;28;20287;-23
2022/05/25 13:12:36;;;;;;;1.65;0.63;;;;;;;18.51;51.94;96725.66;10453486;28;20033;-24
2022/05/25 13:17:43;;;;;;;1.73;0.80;;;;;;;18.55;52.04;96724.78;10480296;28;20037;-24
2022/05/25 13:22:43;;;;;;;;;;;;;;;18.67;51.78;96712.94;10496241;28;20038;-24
2022/05/25 13:28:14;;;;;;;1.05;0.60;;;;;;;18.53;52.05;96716.34;10463345;28;19917;-23
2022/05/25 13:33:20;;;;;;;0.98;0.63;;;;;;;18.51;52.14;96718.88;10453839;28;20453;-22
2022/05/25 13:38:29;;;;;;;3.22;0.57;;;;;;;18.51;52.12;96708.72;10454006;28;20040;-25
2022/05/25 13:43:51;;;;;;;1.35;0.60;;;;;;;18.55;51.95;96712.09;10471367;28;20399;-22
2022/05/25 13:48:52;;;;;;;1.23;0.43;;;;;;;18.51;52.20;96705.34;10492240;28;20519;-23
2022/05/25 13:53:53;;;;;;;1.00;0.85;;;;;;;18.44;51.80;96701.13;10452050;28;20056;-24
2022/05/25 13:59:06;;;;;;;1.45;0.32;;;;;;;18.50;50.70;96706.22;10453000;28;20115;-23
2022/05/25 14:04:09;;;;;;;2.22;0.50;;;;;;;18.51;50.75;96708.72;10451008;28;20310;-23
2022/05/25 14:14:33;;;;;;;0.35;0.30;;;;;;;18.47;50.67;96696.91;10452792;28;20596;-23
2022/05/25 14:19:46;;;;;;;0.60;0.40;;;;;;;18.60;51.14;96705.34;10473691;28;20043;-23
2022/05/25 14:24:50;;;;;;;1.25;0.60;;;;;;;18.77;51.24;96703.66;10457238;28;20035;-22
2022/05/25 14:29:51;;;;;;;1.25;0.43;;;;;;;18.81;51.62;96705.31;10493134;28;20037;-23
2022/05/25 14:34:57;;;;;;;1.38;0.60;;;;;;;18.65;51.54;96701.09;10480578;28;20044;-23
2022/05/25 14:40:01;;;;;;;1.17;0.40;;;;;;;18.65;51.82;96708.72;10450907;28;20021;-23
2022/05/25 14:45:04;;;;;;;1.25;0.77;;;;;;;18.70;51.74;96701.94;10481978;28;20037;-22
2022/05/25 14:50:21;;;;;;;0.63;0.40;;;;;;;18.61;51.68;96709.56;10479586;28;20033;-24
2022/05/25 14:55:30;;;;;;;0.50;0.40;;;;;;;18.61;51.68;96712.97;10449818;28;20392;-24
2022/05/25 15:00:34;;;;;;;0.73;0.40;;;;;;;18.59;51.54;96712.09;10449755;28;20614;-23
2022/05/25 15:05:38;;;;;;;0.95;0.38;;;;;;;18.62;51.65;96708.72;10449589;28;20394;-22
2022/05/25 15:10:38;;;;;;;1.00;0.45;;;;;;;18.62;51.84;96708.72;10449781;28;20045;-23
2022/05/25 15:21:02;;;;;;;0.90;0.60;;;;;;;18.64;50.51;96712.09;10466782;28;20048;-22
2022/05/25 15:26:35;;;;;;;0.60;0.35;;;;;;;18.78;51.22;96716.34;10448842;28;20373;-24
2022/05/25 15:31:36;;;;;;;2.28;0.50;;;;;;;18.70;51.28;96722.25;10449055;28;20041;-23
2022/05/25 15:36:37;;;;;;;0.40;0.30;;;;;;;18.66;51.19;96725.66;10449202;28;20028;-24
2022/05/25 15:41:38;;;;;;;1.58;0.70;;;;;;;18.59;51.58;96721.41;10453268;28;20234;-22
2022/05/25 15:46:44;;;;;;;0.60;0.47;;;;;;;18.60;51.19;96731.53;10489749;28;20495;-24
2022/05/25 15:51:54;;;;;;;1.33;0.63;;;;;;;18.58;51.55;96730.69;10446182;28;20091;-22
2022/05/25 15:56:57;;;;;;;3.53;0.70;;;;;;;18.51;52.63;96731.53;10464695;28;20037;-22
2022/05/25 16:02:00;;;;;;;0.80;0.40;;;;;;;18.52;51.91;96733.25;10448138;28;20067;-23
2022/05/25 16:07:05;;;;;;;1.23;0.50;;;;;;;18.51;51.82;96735.78;10447794;28;20033;-22
2022/05/25 16:12:13;;;;;;;2.42;0.60;;;;;;;18.62;51.70;96734.09;10452422;28;20039;-22
2022/05/25 16:17:13;;;;;;;2.60;0.85;;;;;;;18.68;51.97;96726.47;10467367;28;20034;-22
2022/05/25 16:22:14;;;;;;;4.13;0.60;;;;;;;18.75;52.03;96735.78;10448876;28;20044;-23
2022/05/25 16:27:15;;;;;;;12.87;1.33;;;;;;;18.58;53.24;96740.00;10442201;28;20318;-24
2022/05/25 16:32:16;;;;;;;1.48;0.47;;;;;;;18.60;51.64;96736.59;10443741;28;20521;-22
2022/05/25 16:37:21;;;;;;;2.00;0.60;;;;;;;18.52;50.98;96729.88;10450138;28;20032;-22
2022/05/25 16:42:22;;;;;;;2.10;0.50;;;;;;;18.52;51.08;96742.53;10460731;28;20299;-24
2022/05/25 16:47:22;;;;;;;2.83;0.63;;;;;;;18.66;50.96;96740.84;10455328;28;20033;-23
2022/05/25 16:52:22;;;;;;;1.77;0.53;;;;;;;18.88;50.69;96758.59;10470748;28;20086;-24
2022/05/25 16:57:23;;;;;;;1.70;0.50;;;;;;;18.69;50.47;96763.66;10480852;28;20037;-23
2022/05/25 17:02:24;;;;;;;1.88;0.55;;;;;;;18.58;50.94;96772.97;10462704;28;20769;-23
2022/05/25 17:07:24;;;;;;;0.53;0.40;;;;;;;18.54;50.96;96768.72;10458652;28;20040;-21
2022/05/25 17:12:26;;;;;;;1.27;0.83;;;;;;;18.46;51.15;96772.94;10480628;28;20045;-23
2022/05/25 17:17:26;;;;;;;1.80;0.60;;;;;;;18.45;50.93;96786.47;10491633;28;20031;-23
2022/05/25 17:22:26;;;;;;;3.97;0.50;;;;;;;18.68;49.91;96784.81;10479077;28;20040;-23
2022/05/25 17:27:27;;;;;;;2.90;0.70;;;;;;;18.60;49.74;96789.03;10485757;28;20036;-22
2022/05/25 17:32:31;;;;;;;3.60;0.65;;;;;;;18.56;50.15;96789.84;10494350;28;20039;-22
2022/05/25 17:42:50;;;;;;;3.33;0.63;;;;;;;18.27;50.92;96771.22;10465716;28;20427;-23
2022/05/25 17:47:51;;;;;;;4.50;0.77;;;;;;;18.51;50.04;96814.38;10493012;28;20083;-23
2022/05/25 17:52:54;;;;;;;4.07;0.80;;;;;;;18.53;50.09;96821.16;10459934;28;20101;-23
2022/05/25 17:57:55;;;;;;;1.85;0.47;;;;;;;18.57;49.77;96824.53;10452583;28;20060;-22
2022/05/25 18:02:56;;;;;;;1.13;0.50;;;;;;;18.55;50.09;96832.13;10453245;28;20106;-25
2022/05/25 18:07:59;;;;;;;1.40;0.55;;;;;;;18.52;50.38;96828.75;10453048;28;20487;-22
2022/05/25 18:13:04;;;;;;;0.95;0.50;;;;;;;18.46;50.94;96838.88;10451472;28;20407;-22
2022/05/25 18:18:09;;;;;;;0.52;0.30;;;;;;;18.53;50.39;96848.19;10470673;28;20424;-22
2022/05/25 18:23:11;;;;;;;1.67;0.73;;;;;;;18.53;50.78;96855.78;10479984;28;20039;-22
2022/05/25 18:28:11;;;;;;;0.60;0.60;;;;;;;18.53;51.21;96876.06;10456463;28;20051;-23
2022/05/25 18:33:13;;;;;;;0.83;0.67;;;;;;;18.49;51.77;96879.44;10450302;28;20064;-22
2022/05/25 18:38:14;;;;;;;1.15;0.70;;;;;;;18.49;50.99;96887.06;10451445;28;20769;-23
2022/05/25 18:43:15;;;;;;;1.83;0.40;;;;;;;18.48;50.92;96883.66;10459245;28;20115;-25
2022/05/25 18:48:16;;;;;;;1.20;0.47;;;;;;;18.51;50.20;96898.88;10474880;28;20044;-22
2022/05/25 18:53:18;;;;;;;0.70;0.50;;;;;;;18.54;50.70;96909.03;10478491;28;20130;-24
2022/05/25 18:58:18;;;;;;;2.58;0.47;;;;;;;18.54;50.82;96913.25;10478363;28;20117;-22
2022/05/25 19:03:18;;;;;;;4.60;0.90;;;;;;;18.52;51.20;96922.56;10467162;28;20178;-22
2022/05/25 19:08:19;;;;;;;2.20;0.80;;;;;;;18.46;51.41;96918.31;10464201;28;20507;-24
2022/05/25 19:13:20;;;;;;;0.93;0.40;;;;;;;18.60;50.89;96948.78;10468304;28;20402;-23
2022/05/25 19:18:21;;;;;;;3.17;0.90;;;;;;;18.56;51.08;96957.19;10463187;28;20067;-23
2022/05/25 19:23:27;;;;;;;1.60;0.60;;;;;;;18.54;51.25;96958.88;10448573;28;20041;-23
2022/05/25 19:28:28;;;;;;;;;;;;;;;18.45;51.60;96963.94;10463674;28;20411;-23
2022/05/25 19:33:31;;;;;;;2.83;0.52;;;;;;;18.45;51.85;96976.59;10472473;28;19916;-23
2022/05/25 19:38:34;;;;;;;1.60;0.70;;;;;;;18.43;52.08;96975.75;10458295;28;20041;-23
2022/05/25 19:43:42;;;;;;;2.80;0.82;;;;;;;18.45;52.34;96989.28;10459486;28;20145;-23
2022/05/25 19:48:44;;;;;;;2.55;1.17;;;;;;;18.44;52.40;97003.66;10470088;28;20471;-23
2022/05/25 19:53:45;;;;;;;3.08;0.52;;;;;;;18.37;52.87;97017.13;10444886;28;20128;-23
2022/05/25 19:58:45;;;;;;;2.05;0.95;;;;;;;18.35;53.16;97023.03;10454800;28;20461;-25
2022/05/25 20:03:45;;;;;;;2.53;0.70;;;;;;;18.26;53.15;97020.41;10459143;28;20044;-24
2022/05/25 20:08:47;;;;;;;3.20;0.67;;;;;;;18.30;53.17;97045.81;10458802;28;20067;-23
2022/05/25 20:13:47;;;;;;;1.27;0.45;;;;;;;18.24;53.19;97058.41;10470151;28;20044;-23
2022/05/25 20:18:47;;;;;;;1.40;0.43;;;;;;;18.05;53.23;97025.34;10471002;28;20549;-23
2022/05/25 20:23:48;;;;;;;0.83;0.53;;;;;;;18.25;53.01;97067.72;10483136;28;21003;-23
2022/05/25 20:28:48;;;;;;;3.93;1.80;;;;;;;18.14;52.83;97058.34;10471176;28;20037;-24
2022/05/25 20:33:49;;;;;;;1.13;0.50;;;;;;;18.16;52.75;97069.38;10472823;28;20124;-24
2022/05/25 20:38:49;;;;;;;2.85;0.43;;;;;;;18.19;52.93;97082.91;10485258;28;20040;-23
2022/05/25 20:43:49;;;;;;;2.00;0.83;;;;;;;18.17;52.79;97081.19;10472106;28;20040;-24
2022/05/25 20:48:50;;;;;;;1.97;0.30;;;;;;;18.14;52.76;97086.22;10471260;28;20041;-23
2022/05/25 20:53:51;;;;;;;1.13;0.50;;;;;;;18.15;52.79;97086.25;10474006;28;20044;-23
2022/05/25 20:58:52;;;;;;;0.67;0.53;;;;;;;18.15;52.51;97093.84;10475276;28;20048;-24
2022/05/25 21:03:53;;;;;;;1.08;0.30;;;;;;;18.22;52.30;97097.25;10472709;28;20049;-24
2022/05/25 21:08:54;;;;;;;1.15;0.45;;;;;;;18.15;52.22;97108.22;10483856;28;20037;-24
2022/05/25 21:13:54;;;;;;;1.20;0.75;;;;;;;18.14;52.23;97109.88;10462868;28;20418;-25
2022/05/25 21:18:55;;;;;;;0.93;0.17;;;;;;;18.15;52.22;97115.81;10457167;28;20033;-23
2022/05/25 21:23:55;;;;;;;2.70;0.50;;;;;;;18.12;52.28;97111.56;10448378;28;20036;-23
2022/05/25 21:28:56;;;;;;;0.60;0.40;;;;;;;18.08;52.27;97119.97;10449892;28;20288;-22
2022/05/25 21:33:56;;;;;;;1.63;0.77;;;;;;;18.05;52.19;97114.03;10480677;28;20110;-23
2022/05/25 21:38:59;;;;;;;2.20;0.30;;;;;;;18.07;52.06;97122.50;10482566;28;20487;-24
2022/05/25 21:44:00;;;;;;;2.58;0.50;;;;;;;17.99;51.58;97112.28;10470359;28;20102;-22
2022/05/25 21:54:19;;;;;;;2.50;0.35;;;;;;;18.04;52.01;97137.66;10452291;28;20035;-23
2022/05/25 21:59:19;;;;;;;1.03;0.90;;;;;;;18.02;52.02;97134.28;10461778;28;20067;-23
2022/05/25 22:04:20;;;;;;;0.77;0.40;;;;;;;17.97;52.04;97135.91;10473425;28;20287;-22
2022/05/25 22:09:21;;;;;;;0.82;0.30;;;;;;;17.99;51.70;97154.53;10467337;28;20106;-23
2022/05/25 22:14:22;;;;;;;1.10;0.40;;;;;;;17.95;51.84;97150.25;10472732;28;20040;-24
2022/05/25 22:19:23;;;;;;;0.80;0.40;;;;;;;17.95;51.98;97157.84;10470636;28;20434;-23
2022/05/25 22:24:25;;;;;;;0.90;0.40;;;;;;;17.95;52.00;97153.66;10482024;28;20036;-23
2022/05/25 22:29:26;;;;;;;0.80;0.40;;;;;;;17.93;51.77;97155.31;10451777;28;20399;-23
2022/05/25 22:34:27;;;;;;;2.70;0.40;;;;;;;17.92;51.60;97147.72;10450724;28;20064;-23
2022/05/25 22:39:27;;;;;;;1.33;0.52;;;;;;;17.89;51.81;97150.19;10451084;28;20041;-24
2022/05/25 22:44:32;;;;;;;1.90;0.65;;;;;;;17.91;51.59;97159.50;10450879;28;20033;-22
2022/05/25 22:49:33;;;;;;;0.63;0.32;;;;;;;17.87;51.07;97162.00;10450682;28;20033;-22
2022/05/25 22:54:33;;;;;;;0.77;0.40;;;;;;;17.87;51.85;97169.59;10450223;28;20040;-24
2022/05/25 22:59:35;;;;;;;1.57;0.90;;;;;;;17.87;51.58;97169.59;10450812;28;20516;-24
2022/05/25 23:04:35;;;;;;;0.80;0.40;;;;;;;17.89;51.41;97180.59;10449249;28;20295;-23
2022/05/25 23:09:36;;;;;;;0.77;0.63;;;;;;;17.84;51.44;97180.53;10449798;28;20033;-23
2022/05/25 23:14:39;;;;;;;0.75;0.40;;;;;;;17.83;51.61;97183.09;10452528;28;20283;-23
2022/05/25 23:19:42;;;;;;;2.65;0.50;;;;;;;17.81;51.67;97187.25;10490537;28;20040;-22
2022/05/25 23:30:04;;;;;;;2.30;0.47;;;;;;;17.77;51.60;97180.47;10450072;28;20484;-24
2022/05/25 23:35:07;;;;;;;0.45;0.40;;;;;;;17.76;51.54;97183.84;10449396;28;20067;-22
2022/05/25 23:40:08;;;;;;;1.17;0.50;;;;;;;17.81;51.59;97184.72;10449430;28;20407;-24
2022/05/25 23:45:09;;;;;;;0.70;0.40;;;;;;;17.73;51.47;97191.44;10452781;28;20033;-23
2022/05/25 23:50:16;;;;;;;0.82;0.60;;;;;;;17.67;51.89;97192.19;10458166;28;20102;-23
2022/05/25 23:55:16;;;;;;;1.23;0.50;;;;;;;17.69;51.61;97189.69;10457614;28;20029;-22
